AirNav   TITAN Aviation Fuels
 
 1034 users online  

85CO Anderson Heliport
Niwot, Colorado, USA

GOING TO NIWOT?


FAA INFORMATION EFFECTIVE 08 SEPTEMBER 2022

Location

FAA Identifier: 85CO
Lat/Long: 40-06-44.9460N 105-09-41.9470W
40-06.749100N 105-09.699117W
40.1124850,-105.1616519
(estimated)
Elevation: 5160 ft. / 1573 m (estimated)
Variation: 12E (1986)
From city: 3 miles NW of NIWOT, CO
Time zone: UTC -6 (UTC -7 during Standard Time)
Zip code: 80503

Heliport Operations

Heliport use: Private use. Permission required prior to landing
Activation date: 03/1986
Control tower: no
ARTCC: DENVER CENTER
FSS: DENVER FLIGHT SERVICE STATION
Attendance: UNATNDD
Wind indicator: lighted
Segmented circle: no

Heliport Communications

WX AWOS-3 at LMO (3 nm N): 120.0 (303-684-7545)
WX AWOS-3 at BDU (5 nm SW): 118.825 (303-541-9540)
WX AWOS-3 at EIK (8 nm SE): 133.825 (303-604-4339)
WX AWOS-3 at BJC (12 nm S): PHONE 720-887-8067

Nearby radio navigation aids

VOR radial/distance  VOR name  Freq  Var
BJCr344/12.0JEFFCO VOR/DME115.4011E
DVVr290/27.9MILE HIGH VORTAC114.7008E
DENr300/29.2DENVER VOR/DME117.9008E
FQFr305/35.5FALCON VORTAC116.3011E
GLLr217/36.4GILL VOR/DME114.2013E

Heliport Services

Runway Information

Helipad H1

Dimensions: 30 x 30 ft. / 9 x 9 m
Surface: turf
Traffic pattern: leftleft

Heliport Ownership and Management from official FAA records

Ownership: Privately-owned
Owner: KENNETH R. ANDERSON
6874 LONGVIEW DR.
NIWOT, CO 80544
Phone 303-652-2354

Additional Remarks

A52-H1 30' TREES 125' NW, 35' BLDG 100 N.
FOR CD CTC DENVER APCH AT 303-342-1916.

Instrument Procedures

There are no published instrument procedures at 85CO.

Some nearby airports with instrument procedures:

KLMO - Vance Brand Airport (3 nm N)
KEIK - Erie Municipal Airport (8 nm SE)
KBJC - Rocky Mountain Metro Airport (12 nm S)
KFNL - Northern Colorado Regional Airport (21 nm N)
KDEN - Denver International Airport (27 nm SE)
 
Loc | Ops | Rwys | IFR | FBO | Links
Com | Nav | Svcs | Stats | Notes

AirBoss

 
Area around 85CO (Anderson Heliport)
 
Road maps at: MapQuest Bing Google
 
Aerial photo
No photo
 
Sectional chart

 
Airport distance calculator
Flying to Anderson Heliport? Find the distance to fly.

From to 85CO

Sunrise and sunset
Times for 24-Sep-2022
 Local
(UTC-6)
 Zulu
(UTC)
Morning civil twilight06:2412:24
Sunrise06:5112:51
Sunset18:5400:54
Evening civil twilight19:2101:21

Current date and time
Zulu (UTC)  25-Sep-2022 00:25:15
Local (UTC-6)  24-Sep-2022 18:25:15
 
METAR
KLMO 
3nm N 
242355Z AUTO 00000KT 10SM CLR 27/00 A3018 RMK AO2 T02691002 10287 20243
K1V5 
5nm SW 
AWOS 118.825 303-541-9540
No observation available
KBDU 
5nm SW 
242355Z AUTO 01003KT 10SM CLR 25/00 A3018 RMK AO2
KEIK 
8nm SE 
242355Z AUTO 09006KT 10SM CLR 27/M05 A3017 RMK AO2 T02651050 10279 20240 PWINO
KBJC 
12nm S 
242348Z 04007KT 10SM SKC 26/M03 A3021
TAF
KBJC 
12nm S 
241740Z 2418/2518 VRB03KT P6SM SKC FM241900 07007KT P6SM SKC FM250500 35005KT P6SM SKC
NOTAMs
Click for the latest NOTAMs
NOTAMs are issued by the DoD/FAA and will open in a separate window not controlled by AirNav.

 

 
 

Would you like to see your business listed on this page?

 If your business provides an interesting product or service to pilots, flight crews, aircraft, or users of the Anderson Heliport, you should consider listing it here.  To start the listing process, click on the button below
 
Add a business
 

Other Pages about Anderson Heliport

Update a link
 
Copyright © AirNav, LLC. All rights reserved. Privacy Policy  Contact